sensor_id;sensor_type;location;lat;lon;timestamp;P1;durP1;ratioP1;P2;durP2;ratioP2
67162;SDS011;54092;53.088;8.850;2023-09-19T00:02:16;12.55;;;3.90;;
67162;SDS011;54092;53.088;8.850;2023-09-19T00:04:42;7.72;;;3.67;;
67162;SDS011;54092;53.088;8.850;2023-09-19T00:07:08;7.78;;;3.83;;
67162;SDS011;54092;53.088;8.850;2023-09-19T00:09:34;7.07;;;3.30;;
67162;SDS011;54092;53.088;8.850;2023-09-19T00:12:04;8.98;;;3.97;;
67162;SDS011;54092;53.088;8.850;2023-09-19T00:14:34;9.27;;;3.53;;
67162;SDS011;54092;53.088;8.850;2023-09-19T00:17:00;8.88;;;3.63;;
67162;SDS011;54092;53.088;8.850;2023-09-19T00:19:32;9.20;;;3.80;;
67162;SDS011;54092;53.088;8.850;2023-09-19T00:21:58;6.25;;;3.40;;
67162;SDS011;54092;53.088;8.850;2023-09-19T00:24:23;5.80;;;3.40;;
67162;SDS011;54092;53.088;8.850;2023-09-19T00:26:49;7.10;;;3.25;;
67162;SDS011;54092;53.088;8.850;2023-09-19T00:29:14;9.13;;;3.60;;
67162;SDS011;54092;53.088;8.850;2023-09-19T00:31:44;8.80;;;3.85;;
67162;SDS011;54092;53.088;8.850;2023-09-19T00:34:10;8.27;;;3.38;;
67162;SDS011;54092;53.088;8.850;2023-09-19T00:36:36;7.57;;;3.45;;
67162;SDS011;54092;53.088;8.850;2023-09-19T00:39:04;10.17;;;4.03;;
67162;SDS011;54092;53.088;8.850;2023-09-19T00:41:33;7.63;;;3.55;;
67162;SDS011;54092;53.088;8.850;2023-09-19T00:44:01;9.90;;;3.50;;
67162;SDS011;54092;53.088;8.850;2023-09-19T00:46:28;5.88;;;3.17;;
67162;SDS011;54092;53.088;8.850;2023-09-19T00:48:54;7.30;;;3.30;;
67162;SDS011;54092;53.088;8.850;2023-09-19T00:51:21;7.60;;;3.33;;
67162;SDS011;54092;53.088;8.850;2023-09-19T00:53:47;8.25;;;3.30;;
67162;SDS011;54092;53.088;8.850;2023-09-19T00:56:14;8.35;;;3.50;;
67162;SDS011;54092;53.088;8.850;2023-09-19T01:01:09;6.43;;;3.17;;
67162;SDS011;54092;53.088;8.850;2023-09-19T01:03:36;9.02;;;3.35;;
67162;SDS011;54092;53.088;8.850;2023-09-19T01:06:02;8.95;;;3.65;;
67162;SDS011;54092;53.088;8.850;2023-09-19T01:08:28;8.75;;;3.42;;
67162;SDS011;54092;53.088;8.850;2023-09-19T01:11:03;7.15;;;3.58;;
67162;SDS011;54092;53.088;8.850;2023-09-19T01:13:47;7.18;;;3.38;;
67162;SDS011;54092;53.088;8.850;2023-09-19T01:16:33;8.57;;;3.20;;
67162;SDS011;54092;53.088;8.850;2023-09-19T01:22:11;9.40;;;3.85;;
67162;SDS011;54092;53.088;8.850;2023-09-19T01:24:54;9.18;;;3.58;;
67162;SDS011;54092;53.088;8.850;2023-09-19T01:27:53;11.10;;;3.97;;
67162;SDS011;54092;53.088;8.850;2023-09-19T01:30:39;7.63;;;2.88;;
67162;SDS011;54092;53.088;8.850;2023-09-19T01:33:08;9.48;;;3.05;;
67162;SDS011;54092;53.088;8.850;2023-09-19T01:35:37;6.55;;;2.63;;
67162;SDS011;54092;53.088;8.850;2023-09-19T01:38:04;6.65;;;2.88;;
67162;SDS011;54092;53.088;8.850;2023-09-19T01:40:32;4.90;;;2.13;;
67162;SDS011;54092;53.088;8.850;2023-09-19T01:43:09;4.40;;;2.00;;
67162;SDS011;54092;53.088;8.850;2023-09-19T01:46:12;5.47;;;2.40;;
67162;SDS011;54092;53.088;8.850;2023-09-19T01:48:49;6.05;;;2.22;;
67162;SDS011;54092;53.088;8.850;2023-09-19T01:51:33;6.28;;;3.15;;
67162;SDS011;54092;53.088;8.850;2023-09-19T01:54:16;4.35;;;2.15;;
67162;SDS011;54092;53.088;8.850;2023-09-19T01:56:57;5.63;;;2.60;;
67162;SDS011;54092;53.088;8.850;2023-09-19T02:02:05;4.40;;;2.00;;
67162;SDS011;54092;53.088;8.850;2023-09-19T02:04:32;5.63;;;2.67;;
67162;SDS011;54092;53.088;8.850;2023-09-19T02:06:59;4.07;;;2.00;;
67162;SDS011;54092;53.088;8.850;2023-09-19T02:09:27;7.07;;;2.10;;
67162;SDS011;54092;53.088;8.850;2023-09-19T02:11:52;6.20;;;2.05;;
67162;SDS011;54092;53.088;8.850;2023-09-19T02:14:20;4.50;;;1.88;;
67162;SDS011;54092;53.088;8.850;2023-09-19T02:16:47;4.40;;;1.70;;
67162;SDS011;54092;53.088;8.850;2023-09-19T02:19:14;5.43;;;1.70;;
67162;SDS011;54092;53.088;8.850;2023-09-19T02:21:40;6.38;;;1.92;;
67162;SDS011;54092;53.088;8.850;2023-09-19T02:24:06;7.60;;;2.05;;
67162;SDS011;54092;53.088;8.850;2023-09-19T02:26:35;3.80;;;1.75;;
67162;SDS011;54092;53.088;8.850;2023-09-19T02:29:01;4.68;;;1.70;;
67162;SDS011;54092;53.088;8.850;2023-09-19T02:31:29;4.63;;;1.80;;
67162;SDS011;54092;53.088;8.850;2023-09-19T02:33:55;3.88;;;1.83;;
67162;SDS011;54092;53.088;8.850;2023-09-19T02:36:21;3.53;;;1.70;;
67162;SDS011;54092;53.088;8.850;2023-09-19T02:38:48;4.18;;;1.42;;
67162;SDS011;54092;53.088;8.850;2023-09-19T02:41:14;7.25;;;2.28;;
67162;SDS011;54092;53.088;8.850;2023-09-19T02:43:39;7.22;;;2.13;;
67162;SDS011;54092;53.088;8.850;2023-09-19T02:46:05;4.97;;;1.58;;
67162;SDS011;54092;53.088;8.850;2023-09-19T02:48:31;8.00;;;1.83;;
67162;SDS011;54092;53.088;8.850;2023-09-19T02:50:57;3.58;;;1.73;;
67162;SDS011;54092;53.088;8.850;2023-09-19T02:53:23;6.15;;;1.90;;
67162;SDS011;54092;53.088;8.850;2023-09-19T02:55:49;4.55;;;1.67;;
67162;SDS011;54092;53.088;8.850;2023-09-19T02:58:15;5.18;;;1.80;;
67162;SDS011;54092;53.088;8.850;2023-09-19T03:00:43;7.22;;;1.85;;
67162;SDS011;54092;53.088;8.850;2023-09-19T03:03:12;5.10;;;2.50;;
67162;SDS011;54092;53.088;8.850;2023-09-19T03:05:38;5.10;;;1.92;;
67162;SDS011;54092;53.088;8.850;2023-09-19T03:08:03;3.60;;;1.70;;
67162;SDS011;54092;53.088;8.850;2023-09-19T03:10:30;5.30;;;2.00;;
67162;SDS011;54092;53.088;8.850;2023-09-19T03:12:56;9.93;;;2.00;;
67162;SDS011;54092;53.088;8.850;2023-09-19T03:15:22;6.40;;;1.90;;
67162;SDS011;54092;53.088;8.850;2023-09-19T03:17:48;7.80;;;2.15;;
67162;SDS011;54092;53.088;8.850;2023-09-19T03:20:14;6.78;;;2.08;;
67162;SDS011;54092;53.088;8.850;2023-09-19T03:22:42;6.15;;;2.75;;
67162;SDS011;54092;53.088;8.850;2023-09-19T03:25:08;9.00;;;2.35;;
67162;SDS011;54092;53.088;8.850;2023-09-19T03:27:36;5.82;;;2.25;;
67162;SDS011;54092;53.088;8.850;2023-09-19T03:30:03;5.57;;;2.03;;
67162;SDS011;54092;53.088;8.850;2023-09-19T03:32:33;6.18;;;1.98;;
67162;SDS011;54092;53.088;8.850;2023-09-19T03:34:59;5.82;;;1.90;;
67162;SDS011;54092;53.088;8.850;2023-09-19T03:37:25;5.60;;;2.20;;
67162;SDS011;54092;53.088;8.850;2023-09-19T03:39:51;5.32;;;2.22;;
67162;SDS011;54092;53.088;8.850;2023-09-19T03:42:16;6.80;;;2.25;;
67162;SDS011;54092;53.088;8.850;2023-09-19T03:44:42;7.30;;;2.55;;
67162;SDS011;54092;53.088;8.850;2023-09-19T03:47:08;7.03;;;2.17;;
67162;SDS011;54092;53.088;8.850;2023-09-19T03:49:33;7.35;;;2.40;;
67162;SDS011;54092;53.088;8.850;2023-09-19T03:51:59;6.85;;;3.13;;
67162;SDS011;54092;53.088;8.850;2023-09-19T03:54:24;9.02;;;2.90;;
67162;SDS011;54092;53.088;8.850;2023-09-19T03:56:50;6.28;;;2.22;;
67162;SDS011;54092;53.088;8.850;2023-09-19T03:59:15;8.63;;;2.85;;
67162;SDS011;54092;53.088;8.850;2023-09-19T04:01:43;8.23;;;2.70;;
67162;SDS011;54092;53.088;8.850;2023-09-19T04:04:09;3.97;;;2.17;;
67162;SDS011;54092;53.088;8.850;2023-09-19T04:06:34;6.38;;;2.30;;
67162;SDS011;54092;53.088;8.850;2023-09-19T04:09:00;9.52;;;2.67;;
67162;SDS011;54092;53.088;8.850;2023-09-19T04:11:31;5.80;;;2.30;;
67162;SDS011;54092;53.088;8.850;2023-09-19T04:13:58;7.45;;;2.33;;
67162;SDS011;54092;53.088;8.850;2023-09-19T04:16:24;8.15;;;2.47;;
67162;SDS011;54092;53.088;8.850;2023-09-19T04:18:49;9.68;;;2.40;;
67162;SDS011;54092;53.088;8.850;2023-09-19T04:21:15;7.20;;;2.25;;
67162;SDS011;54092;53.088;8.850;2023-09-19T04:23:40;6.95;;;2.45;;
67162;SDS011;54092;53.088;8.850;2023-09-19T04:26:06;6.53;;;2.30;;
67162;SDS011;54092;53.088;8.850;2023-09-19T04:28:32;7.00;;;2.40;;
67162;SDS011;54092;53.088;8.850;2023-09-19T04:30:59;10.57;;;2.30;;
67162;SDS011;54092;53.088;8.850;2023-09-19T04:33:25;7.20;;;2.60;;
67162;SDS011;54092;53.088;8.850;2023-09-19T04:35:52;8.25;;;3.00;;
67162;SDS011;54092;53.088;8.850;2023-09-19T04:38:18;9.05;;;2.53;;
67162;SDS011;54092;53.088;8.850;2023-09-19T04:40:44;9.75;;;2.60;;
67162;SDS011;54092;53.088;8.850;2023-09-19T04:43:10;7.15;;;2.40;;
67162;SDS011;54092;53.088;8.850;2023-09-19T04:45:36;12.43;;;2.85;;
67162;SDS011;54092;53.088;8.850;2023-09-19T04:48:04;12.25;;;2.88;;
67162;SDS011;54092;53.088;8.850;2023-09-19T04:50:31;8.23;;;2.63;;
67162;SDS011;54092;53.088;8.850;2023-09-19T04:52:59;13.70;;;2.85;;
67162;SDS011;54092;53.088;8.850;2023-09-19T04:55:25;11.25;;;2.63;;
67162;SDS011;54092;53.088;8.850;2023-09-19T04:57:51;12.32;;;2.95;;
67162;SDS011;54092;53.088;8.850;2023-09-19T05:00:21;7.70;;;2.72;;
67162;SDS011;54092;53.088;8.850;2023-09-19T05:02:54;11.40;;;2.42;;
67162;SDS011;54092;53.088;8.850;2023-09-19T05:05:23;6.20;;;2.60;;
67162;SDS011;54092;53.088;8.850;2023-09-19T05:07:50;13.00;;;2.72;;
67162;SDS011;54092;53.088;8.850;2023-09-19T05:10:16;15.15;;;2.95;;
67162;SDS011;54092;53.088;8.850;2023-09-19T05:12:43;8.50;;;3.05;;
67162;SDS011;54092;53.088;8.850;2023-09-19T05:15:12;8.85;;;2.88;;
67162;SDS011;54092;53.088;8.850;2023-09-19T05:17:39;7.00;;;2.65;;
67162;SDS011;54092;53.088;8.850;2023-09-19T05:20:05;7.60;;;3.00;;
67162;SDS011;54092;53.088;8.850;2023-09-19T05:22:39;7.35;;;2.50;;
67162;SDS011;54092;53.088;8.850;2023-09-19T05:25:06;7.13;;;2.83;;
67162;SDS011;54092;53.088;8.850;2023-09-19T05:27:31;8.65;;;2.58;;
67162;SDS011;54092;53.088;8.850;2023-09-19T05:29:58;8.00;;;2.70;;
67162;SDS011;54092;53.088;8.850;2023-09-19T05:32:24;10.10;;;2.78;;
67162;SDS011;54092;53.088;8.850;2023-09-19T05:34:50;8.23;;;2.65;;
67162;SDS011;54092;53.088;8.850;2023-09-19T05:37:18;9.57;;;2.53;;
67162;SDS011;54092;53.088;8.850;2023-09-19T05:39:44;7.72;;;2.70;;
67162;SDS011;54092;53.088;8.850;2023-09-19T05:42:09;10.63;;;2.70;;
67162;SDS011;54092;53.088;8.850;2023-09-19T05:44:35;6.40;;;2.50;;
67162;SDS011;54092;53.088;8.850;2023-09-19T05:47:01;7.20;;;2.63;;
67162;SDS011;54092;53.088;8.850;2023-09-19T05:49:28;8.95;;;2.67;;
67162;SDS011;54092;53.088;8.850;2023-09-19T05:51:53;6.70;;;2.85;;
67162;SDS011;54092;53.088;8.850;2023-09-19T05:54:21;11.73;;;2.90;;
67162;SDS011;54092;53.088;8.850;2023-09-19T05:56:47;7.28;;;2.45;;
67162;SDS011;54092;53.088;8.850;2023-09-19T05:59:12;10.15;;;2.47;;
67162;SDS011;54092;53.088;8.850;2023-09-19T06:01:42;12.18;;;2.70;;
67162;SDS011;54092;53.088;8.850;2023-09-19T06:04:07;10.68;;;2.85;;
67162;SDS011;54092;53.088;8.850;2023-09-19T06:06:33;7.45;;;2.53;;
67162;SDS011;54092;53.088;8.850;2023-09-19T06:09:05;11.68;;;2.92;;
67162;SDS011;54092;53.088;8.850;2023-09-19T06:11:33;9.57;;;2.85;;
67162;SDS011;54092;53.088;8.850;2023-09-19T06:14:00;12.30;;;2.70;;
67162;SDS011;54092;53.088;8.850;2023-09-19T06:16:27;7.05;;;2.55;;
67162;SDS011;54092;53.088;8.850;2023-09-19T06:18:54;8.75;;;2.30;;
67162;SDS011;54092;53.088;8.850;2023-09-19T06:21:20;12.30;;;3.15;;
67162;SDS011;54092;53.088;8.850;2023-09-19T06:23:47;8.80;;;3.10;;
67162;SDS011;54092;53.088;8.850;2023-09-19T06:26:12;6.50;;;2.70;;
67162;SDS011;54092;53.088;8.850;2023-09-19T06:28:38;11.93;;;2.83;;
67162;SDS011;54092;53.088;8.850;2023-09-19T06:31:03;7.75;;;2.70;;
67162;SDS011;54092;53.088;8.850;2023-09-19T06:33:34;9.90;;;3.45;;
67162;SDS011;54092;53.088;8.850;2023-09-19T06:36:03;9.57;;;3.05;;
67162;SDS011;54092;53.088;8.850;2023-09-19T06:38:29;12.02;;;2.97;;
67162;SDS011;54092;53.088;8.850;2023-09-19T06:40:56;11.93;;;2.60;;
67162;SDS011;54092;53.088;8.850;2023-09-19T06:43:22;12.18;;;3.03;;
67162;SDS011;54092;53.088;8.850;2023-09-19T06:45:48;13.23;;;2.83;;
67162;SDS011;54092;53.088;8.850;2023-09-19T06:48:15;7.68;;;2.55;;
67162;SDS011;54092;53.088;8.850;2023-09-19T06:50:41;7.10;;;2.90;;
67162;SDS011;54092;53.088;8.850;2023-09-19T06:53:09;11.00;;;2.60;;
67162;SDS011;54092;53.088;8.850;2023-09-19T06:55:34;11.18;;;2.78;;
67162;SDS011;54092;53.088;8.850;2023-09-19T06:58:01;11.38;;;2.95;;
67162;SDS011;54092;53.088;8.850;2023-09-19T07:00:27;9.07;;;2.72;;
67162;SDS011;54092;53.088;8.850;2023-09-19T07:03:00;12.13;;;2.80;;
67162;SDS011;54092;53.088;8.850;2023-09-19T07:05:33;10.82;;;2.50;;
67162;SDS011;54092;53.088;8.850;2023-09-19T07:08:02;9.48;;;2.58;;
67162;SDS011;54092;53.088;8.850;2023-09-19T07:10:28;7.90;;;2.65;;
67162;SDS011;54092;53.088;8.850;2023-09-19T07:12:55;8.60;;;2.45;;
67162;SDS011;54092;53.088;8.850;2023-09-19T07:15:35;5.72;;;2.10;;
67162;SDS011;54092;53.088;8.850;2023-09-19T07:18:04;12.17;;;2.27;;
67162;SDS011;54092;53.088;8.850;2023-09-19T07:20:31;15.85;;;2.75;;
67162;SDS011;54092;53.088;8.850;2023-09-19T07:22:57;10.27;;;2.20;;
67162;SDS011;54092;53.088;8.850;2023-09-19T07:25:26;9.80;;;2.67;;
67162;SDS011;54092;53.088;8.850;2023-09-19T07:27:54;7.78;;;2.58;;
67162;SDS011;54092;53.088;8.850;2023-09-19T07:30:20;8.50;;;2.30;;
67162;SDS011;54092;53.088;8.850;2023-09-19T07:32:46;11.82;;;2.80;;
67162;SDS011;54092;53.088;8.850;2023-09-19T07:35:12;10.80;;;3.20;;
67162;SDS011;54092;53.088;8.850;2023-09-19T07:37:38;9.57;;;2.60;;
67162;SDS011;54092;53.088;8.850;2023-09-19T07:40:04;8.82;;;2.40;;
67162;SDS011;54092;53.088;8.850;2023-09-19T07:42:34;13.15;;;2.65;;
67162;SDS011;54092;53.088;8.850;2023-09-19T07:45:00;6.60;;;2.20;;
67162;SDS011;54092;53.088;8.850;2023-09-19T07:47:26;9.75;;;2.50;;
67162;SDS011;54092;53.088;8.850;2023-09-19T07:49:52;11.98;;;2.10;;
67162;SDS011;54092;53.088;8.850;2023-09-19T07:52:18;13.10;;;2.50;;
67162;SDS011;54092;53.088;8.850;2023-09-19T07:54:44;8.73;;;2.17;;
67162;SDS011;54092;53.088;8.850;2023-09-19T07:57:10;11.15;;;2.25;;
67162;SDS011;54092;53.088;8.850;2023-09-19T07:59:36;11.93;;;2.55;;
67162;SDS011;54092;53.088;8.850;2023-09-19T08:02:03;8.52;;;2.47;;
67162;SDS011;54092;53.088;8.850;2023-09-19T08:04:29;11.27;;;2.80;;
67162;SDS011;54092;53.088;8.850;2023-09-19T08:06:57;13.23;;;2.40;;
67162;SDS011;54092;53.088;8.850;2023-09-19T08:09:25;10.88;;;2.70;;
67162;SDS011;54092;53.088;8.850;2023-09-19T08:11:51;7.30;;;1.90;;
67162;SDS011;54092;53.088;8.850;2023-09-19T08:14:16;12.68;;;2.42;;
67162;SDS011;54092;53.088;8.850;2023-09-19T08:16:42;11.18;;;2.58;;
67162;SDS011;54092;53.088;8.850;2023-09-19T08:19:09;8.65;;;1.90;;
67162;SDS011;54092;53.088;8.850;2023-09-19T08:21:35;8.82;;;2.00;;
67162;SDS011;54092;53.088;8.850;2023-09-19T08:24:01;10.95;;;2.53;;
67162;SDS011;54092;53.088;8.850;2023-09-19T08:26:30;9.73;;;2.28;;
67162;SDS011;54092;53.088;8.850;2023-09-19T08:28:56;11.20;;;2.30;;
67162;SDS011;54092;53.088;8.850;2023-09-19T08:31:22;6.65;;;1.92;;
67162;SDS011;54092;53.088;8.850;2023-09-19T08:33:48;7.70;;;2.05;;
67162;SDS011;54092;53.088;8.850;2023-09-19T08:36:16;8.73;;;2.33;;
67162;SDS011;54092;53.088;8.850;2023-09-19T08:38:42;9.60;;;2.28;;
67162;SDS011;54092;53.088;8.850;2023-09-19T08:41:07;15.90;;;2.42;;
67162;SDS011;54092;53.088;8.850;2023-09-19T08:43:33;11.35;;;2.30;;
67162;SDS011;54092;53.088;8.850;2023-09-19T08:46:03;7.53;;;2.38;;
67162;SDS011;54092;53.088;8.850;2023-09-19T08:48:45;9.02;;;2.00;;
67162;SDS011;54092;53.088;8.850;2023-09-19T08:51:18;7.72;;;2.50;;
67162;SDS011;54092;53.088;8.850;2023-09-19T08:54:12;10.82;;;2.72;;
67162;SDS011;54092;53.088;8.850;2023-09-19T08:56:54;10.55;;;2.97;;
67162;SDS011;54092;53.088;8.850;2023-09-19T08:59:22;7.82;;;2.35;;
67162;SDS011;54092;53.088;8.850;2023-09-19T09:01:52;5.95;;;1.98;;
67162;SDS011;54092;53.088;8.850;2023-09-19T09:04:18;13.43;;;2.78;;
67162;SDS011;54092;53.088;8.850;2023-09-19T09:06:45;8.57;;;2.08;;
67162;SDS011;54092;53.088;8.850;2023-09-19T09:09:13;9.23;;;2.20;;
67162;SDS011;54092;53.088;8.850;2023-09-19T09:11:40;8.48;;;2.42;;
67162;SDS011;54092;53.088;8.850;2023-09-19T09:14:06;6.78;;;2.15;;
67162;SDS011;54092;53.088;8.850;2023-09-19T09:16:32;9.30;;;2.13;;
67162;SDS011;54092;53.088;8.850;2023-09-19T09:18:58;6.25;;;2.10;;
67162;SDS011;54092;53.088;8.850;2023-09-19T09:21:25;9.25;;;2.20;;
67162;SDS011;54092;53.088;8.850;2023-09-19T09:23:51;9.55;;;2.05;;
67162;SDS011;54092;53.088;8.850;2023-09-19T09:26:30;8.40;;;2.20;;
67162;SDS011;54092;53.088;8.850;2023-09-19T09:29:03;10.25;;;2.72;;
67162;SDS011;54092;53.088;8.850;2023-09-19T09:31:29;9.07;;;2.17;;
67162;SDS011;54092;53.088;8.850;2023-09-19T09:33:55;7.28;;;2.08;;
67162;SDS011;54092;53.088;8.850;2023-09-19T09:36:37;10.18;;;2.22;;
67162;SDS011;54092;53.088;8.850;2023-09-19T09:39:05;5.65;;;1.90;;
67162;SDS011;54092;53.088;8.850;2023-09-19T09:41:43;7.30;;;2.10;;
67162;SDS011;54092;53.088;8.850;2023-09-19T09:44:14;9.10;;;2.10;;
67162;SDS011;54092;53.088;8.850;2023-09-19T09:46:44;8.75;;;2.58;;
67162;SDS011;54092;53.088;8.850;2023-09-19T09:49:23;8.68;;;1.92;;
67162;SDS011;54092;53.088;8.850;2023-09-19T09:51:59;8.30;;;1.90;;
67162;SDS011;54092;53.088;8.850;2023-09-19T09:55:00;7.82;;;2.13;;
67162;SDS011;54092;53.088;8.850;2023-09-19T09:57:30;7.85;;;2.03;;
67162;SDS011;54092;53.088;8.850;2023-09-19T09:59:58;6.82;;;1.88;;
67162;SDS011;54092;53.088;8.850;2023-09-19T10:02:40;5.78;;;2.08;;
67162;SDS011;54092;53.088;8.850;2023-09-19T10:05:13;8.80;;;2.42;;
67162;SDS011;54092;53.088;8.850;2023-09-19T10:07:58;9.95;;;2.28;;
67162;SDS011;54092;53.088;8.850;2023-09-19T10:10:38;6.32;;;1.77;;
67162;SDS011;54092;53.088;8.850;2023-09-19T10:13:08;6.68;;;2.15;;
67162;SDS011;54092;53.088;8.850;2023-09-19T10:15:38;5.93;;;1.80;;
67162;SDS011;54092;53.088;8.850;2023-09-19T10:18:11;10.00;;;2.10;;
67162;SDS011;54092;53.088;8.850;2023-09-19T10:20:43;11.13;;;2.10;;
67162;SDS011;54092;53.088;8.850;2023-09-19T10:23:10;9.38;;;2.28;;
67162;SDS011;54092;53.088;8.850;2023-09-19T10:25:42;7.18;;;2.25;;
67162;SDS011;54092;53.088;8.850;2023-09-19T10:28:11;9.82;;;2.50;;
67162;SDS011;54092;53.088;8.850;2023-09-19T10:30:40;11.02;;;3.15;;
67162;SDS011;54092;53.088;8.850;2023-09-19T10:33:10;9.98;;;2.15;;
67162;SDS011;54092;53.088;8.850;2023-09-19T10:35:38;6.55;;;2.20;;
67162;SDS011;54092;53.088;8.850;2023-09-19T10:38:07;8.77;;;2.35;;
67162;SDS011;54092;53.088;8.850;2023-09-19T10:40:35;13.48;;;2.47;;
67162;SDS011;54092;53.088;8.850;2023-09-19T10:43:05;7.15;;;2.17;;
67162;SDS011;54092;53.088;8.850;2023-09-19T10:45:32;7.53;;;2.05;;
67162;SDS011;54092;53.088;8.850;2023-09-19T10:47:59;7.43;;;2.10;;
67162;SDS011;54092;53.088;8.850;2023-09-19T10:50:30;6.90;;;2.22;;
67162;SDS011;54092;53.088;8.850;2023-09-19T10:53:17;8.73;;;2.25;;
67162;SDS011;54092;53.088;8.850;2023-09-19T10:56:01;16.05;;;3.05;;
67162;SDS011;54092;53.088;8.850;2023-09-19T10:58:35;9.32;;;2.80;;
67162;SDS011;54092;53.088;8.850;2023-09-19T11:01:04;9.57;;;2.50;;
67162;SDS011;54092;53.088;8.850;2023-09-19T11:03:34;9.95;;;2.20;;
67162;SDS011;54092;53.088;8.850;2023-09-19T11:06:06;7.07;;;2.20;;
67162;SDS011;54092;53.088;8.850;2023-09-19T11:30:31;7.78;;;2.42;;
67162;SDS011;54092;53.088;8.850;2023-09-19T11:39:01;9.68;;;2.20;;
67162;SDS011;54092;53.088;8.850;2023-09-19T11:41:38;7.68;;;2.13;;
67162;SDS011;54092;53.088;8.850;2023-09-19T11:46:38;10.20;;;2.20;;
67162;SDS011;54092;53.088;8.850;2023-09-19T11:49:24;8.73;;;2.42;;
67162;SDS011;54092;53.088;8.850;2023-09-19T11:51:54;7.95;;;2.42;;
67162;SDS011;54092;53.088;8.850;2023-09-19T11:54:20;10.90;;;2.58;;
67162;SDS011;54092;53.088;8.850;2023-09-19T11:56:53;7.80;;;2.58;;
67162;SDS011;54092;53.088;8.850;2023-09-19T11:59:26;4.22;;;2.00;;
67162;SDS011;54092;53.088;8.850;2023-09-19T12:01:55;10.07;;;2.88;;
67162;SDS011;54092;53.088;8.850;2023-09-19T12:04:53;9.27;;;2.17;;
67162;SDS011;54092;53.088;8.850;2023-09-19T12:07:18;7.97;;;2.40;;
67162;SDS011;54092;53.088;8.850;2023-09-19T12:09:45;7.90;;;2.15;;
67162;SDS011;54092;53.088;8.850;2023-09-19T12:12:25;9.02;;;2.70;;
67162;SDS011;54092;53.088;8.850;2023-09-19T12:14:58;6.80;;;2.03;;
67162;SDS011;54092;53.088;8.850;2023-09-19T12:17:37;6.18;;;2.20;;
67162;SDS011;54092;53.088;8.850;2023-09-19T12:20:04;10.38;;;2.10;;
67162;SDS011;54092;53.088;8.850;2023-09-19T12:22:44;10.75;;;2.45;;
67162;SDS011;54092;53.088;8.850;2023-09-19T12:25:11;8.52;;;2.42;;
67162;SDS011;54092;53.088;8.850;2023-09-19T12:27:44;6.72;;;2.10;;
67162;SDS011;54092;53.088;8.850;2023-09-19T12:30:12;6.05;;;2.38;;
67162;SDS011;54092;53.088;8.850;2023-09-19T12:32:42;8.35;;;2.30;;
67162;SDS011;54092;53.088;8.850;2023-09-19T12:35:08;7.22;;;2.33;;
67162;SDS011;54092;53.088;8.850;2023-09-19T12:37:36;7.75;;;2.55;;
67162;SDS011;54092;53.088;8.850;2023-09-19T12:40:08;10.15;;;2.10;;
67162;SDS011;54092;53.088;8.850;2023-09-19T12:42:47;11.88;;;2.30;;
67162;SDS011;54092;53.088;8.850;2023-09-19T12:45:14;7.35;;;2.47;;
67162;SDS011;54092;53.088;8.850;2023-09-19T12:48:17;9.73;;;2.60;;
67162;SDS011;54092;53.088;8.850;2023-09-19T12:53:30;9.38;;;2.70;;
67162;SDS011;54092;53.088;8.850;2023-09-19T12:55:58;10.43;;;2.53;;
67162;SDS011;54092;53.088;8.850;2023-09-19T12:58:24;9.38;;;2.55;;
67162;SDS011;54092;53.088;8.850;2023-09-19T13:00:50;6.50;;;2.00;;
67162;SDS011;54092;53.088;8.850;2023-09-19T13:06:00;8.65;;;2.47;;
67162;SDS011;54092;53.088;8.850;2023-09-19T13:08:34;7.72;;;2.30;;
67162;SDS011;54092;53.088;8.850;2023-09-19T13:11:07;8.18;;;2.40;;
67162;SDS011;54092;53.088;8.850;2023-09-19T13:16:10;9.95;;;2.60;;
67162;SDS011;54092;53.088;8.850;2023-09-19T13:18:47;7.93;;;2.75;;
67162;SDS011;54092;53.088;8.850;2023-09-19T13:21:16;9.75;;;2.47;;
67162;SDS011;54092;53.088;8.850;2023-09-19T13:23:54;11.15;;;2.50;;
67162;SDS011;54092;53.088;8.850;2023-09-19T13:26:25;6.93;;;2.20;;
67162;SDS011;54092;53.088;8.850;2023-09-19T13:28:50;7.45;;;2.08;;
67162;SDS011;54092;53.088;8.850;2023-09-19T13:31:16;10.52;;;2.70;;
67162;SDS011;54092;53.088;8.850;2023-09-19T13:33:42;5.57;;;2.15;;
67162;SDS011;54092;53.088;8.850;2023-09-19T13:36:12;11.32;;;2.35;;
67162;SDS011;54092;53.088;8.850;2023-09-19T13:38:39;9.20;;;2.22;;
67162;SDS011;54092;53.088;8.850;2023-09-19T13:41:08;8.23;;;2.72;;
67162;SDS011;54092;53.088;8.850;2023-09-19T13:43:38;9.52;;;2.45;;
67162;SDS011;54092;53.088;8.850;2023-09-19T13:46:04;11.55;;;2.90;;
67162;SDS011;54092;53.088;8.850;2023-09-19T13:48:30;7.25;;;2.20;;
67162;SDS011;54092;53.088;8.850;2023-09-19T13:50:56;9.23;;;2.17;;
67162;SDS011;54092;53.088;8.850;2023-09-19T13:53:21;4.93;;;2.13;;
67162;SDS011;54092;53.088;8.850;2023-09-19T13:55:48;7.43;;;2.25;;
67162;SDS011;54092;53.088;8.850;2023-09-19T13:58:14;12.38;;;2.42;;
67162;SDS011;54092;53.088;8.850;2023-09-19T14:00:39;9.85;;;2.08;;
67162;SDS011;54092;53.088;8.850;2023-09-19T14:03:05;11.32;;;2.42;;
67162;SDS011;54092;53.088;8.850;2023-09-19T14:05:31;8.57;;;2.13;;
67162;SDS011;54092;53.088;8.850;2023-09-19T14:07:56;12.23;;;3.30;;
67162;SDS011;54092;53.088;8.850;2023-09-19T14:10:24;9.88;;;2.53;;
67162;SDS011;54092;53.088;8.850;2023-09-19T14:12:50;7.85;;;2.20;;
67162;SDS011;54092;53.088;8.850;2023-09-19T14:15:15;5.88;;;1.90;;
67162;SDS011;54092;53.088;8.850;2023-09-19T14:17:41;6.22;;;2.08;;
67162;SDS011;54092;53.088;8.850;2023-09-19T14:22:36;9.18;;;2.28;;
67162;SDS011;54092;53.088;8.850;2023-09-19T14:25:05;7.82;;;2.38;;
67162;SDS011;54092;53.088;8.850;2023-09-19T14:27:30;5.13;;;2.00;;
67162;SDS011;54092;53.088;8.850;2023-09-19T14:29:56;10.70;;;2.50;;
67162;SDS011;54092;53.088;8.850;2023-09-19T14:32:22;14.00;;;2.72;;
67162;SDS011;54092;53.088;8.850;2023-09-19T14:34:48;8.02;;;2.22;;
67162;SDS011;54092;53.088;8.850;2023-09-19T14:37:14;8.88;;;2.35;;
67162;SDS011;54092;53.088;8.850;2023-09-19T14:39:41;7.90;;;2.55;;
67162;SDS011;54092;53.088;8.850;2023-09-19T14:42:09;7.43;;;2.15;;
67162;SDS011;54092;53.088;8.850;2023-09-19T14:44:35;7.15;;;2.45;;
67162;SDS011;54092;53.088;8.850;2023-09-19T14:47:02;6.32;;;2.00;;
67162;SDS011;54092;53.088;8.850;2023-09-19T14:49:29;9.20;;;2.20;;
67162;SDS011;54092;53.088;8.850;2023-09-19T14:51:55;8.98;;;1.98;;
67162;SDS011;54092;53.088;8.850;2023-09-19T14:54:20;8.45;;;2.20;;
67162;SDS011;54092;53.088;8.850;2023-09-19T14:56:46;9.40;;;2.13;;
67162;SDS011;54092;53.088;8.850;2023-09-19T14:59:18;7.70;;;2.38;;
67162;SDS011;54092;53.088;8.850;2023-09-19T15:01:45;6.75;;;1.67;;
67162;SDS011;54092;53.088;8.850;2023-09-19T15:04:10;6.32;;;2.47;;
67162;SDS011;54092;53.088;8.850;2023-09-19T15:06:36;7.90;;;2.10;;
67162;SDS011;54092;53.088;8.850;2023-09-19T15:09:02;7.20;;;2.30;;
67162;SDS011;54092;53.088;8.850;2023-09-19T15:11:30;9.52;;;2.50;;
67162;SDS011;54092;53.088;8.850;2023-09-19T15:13:55;19.80;;;3.00;;
67162;SDS011;54092;53.088;8.850;2023-09-19T15:16:21;12.48;;;2.15;;
67162;SDS011;54092;53.088;8.850;2023-09-19T15:18:47;5.38;;;2.28;;
67162;SDS011;54092;53.088;8.850;2023-09-19T15:21:13;10.02;;;2.10;;
67162;SDS011;54092;53.088;8.850;2023-09-19T15:23:40;6.57;;;2.70;;
67162;SDS011;54092;53.088;8.850;2023-09-19T15:26:07;7.35;;;2.50;;
67162;SDS011;54092;53.088;8.850;2023-09-19T15:28:33;6.38;;;2.33;;
67162;SDS011;54092;53.088;8.850;2023-09-19T15:31:00;8.32;;;2.30;;
67162;SDS011;54092;53.088;8.850;2023-09-19T15:33:26;5.95;;;2.00;;
67162;SDS011;54092;53.088;8.850;2023-09-19T15:35:59;7.28;;;2.30;;
67162;SDS011;54092;53.088;8.850;2023-09-19T15:38:55;11.13;;;2.35;;
67162;SDS011;54092;53.088;8.850;2023-09-19T15:41:34;7.65;;;2.40;;
67162;SDS011;54092;53.088;8.850;2023-09-19T15:44:04;5.22;;;1.83;;
67162;SDS011;54092;53.088;8.850;2023-09-19T15:46:35;6.85;;;1.92;;